createdAt,value
2023-02-01T00:02:13.241Z,97860.91
2023-02-01T00:05:16.274Z,97863.41
2023-02-01T00:08:19.037Z,97853.53
2023-02-01T00:11:22.195Z,97852.41
2023-02-01T00:14:24.953Z,97843.47
2023-02-01T00:17:27.536Z,97842.66
2023-02-01T00:20:31.070Z,97851.94
2023-02-01T00:23:35.478Z,97834.66
2023-02-01T00:26:40.806Z,97837.66
2023-02-01T00:29:43.393Z,97833.28
2023-02-01T00:32:46.021Z,97838.88
2023-02-01T00:35:48.642Z,97833.09
2023-02-01T00:38:51.254Z,97837.19
2023-02-01T00:41:53.906Z,97829.41
2023-02-01T00:44:57.062Z,97837.59
2023-02-01T00:48:00.616Z,97828.50
2023-02-01T00:51:05.365Z,97813.25
2023-02-01T00:54:08.009Z,97808.59
2023-02-01T00:57:10.607Z,97825.91
2023-02-01T01:00:13.565Z,97810.66
2023-02-01T01:03:18.952Z,97823.94
2023-02-01T01:06:30.056Z,97830.56
2023-02-01T01:09:32.871Z,97817.19
2023-02-01T01:12:35.654Z,97807.78
2023-02-01T01:15:40.483Z,97812.34
2023-02-01T01:18:43.196Z,97802.69
2023-02-01T01:21:45.805Z,97803.84
2023-02-01T01:24:48.449Z,97806.53
2023-02-01T01:27:50.976Z,97795.41
2023-02-01T01:30:54.689Z,97786.59
2023-02-01T01:34:00.535Z,97784.69
2023-02-01T01:37:04.022Z,97795.19
2023-02-01T01:40:08.595Z,97796.34
2023-02-01T01:43:16.366Z,97790.09
2023-02-01T01:46:20.580Z,97785.66
2023-02-01T01:49:25.395Z,97796.22
2023-02-01T01:52:29.106Z,97797.16
2023-02-01T01:55:33.988Z,97796.75
2023-02-01T01:58:36.873Z,97782.53
2023-02-01T02:01:40.132Z,97782.22
2023-02-01T02:04:44.810Z,97788.66
2023-02-01T02:07:50.737Z,97786.84
2023-02-01T02:11:02.197Z,97780.44
2023-02-01T02:14:07.124Z,97792.91
2023-02-01T02:17:54.024Z,97787.84
2023-02-01T02:21:11.881Z,97786.66
2023-02-01T02:24:40.449Z,97792.41
2023-02-01T02:28:02.299Z,97809.63
2023-02-01T02:31:33.750Z,97800.19
2023-02-01T02:35:16.215Z,97810.78
2023-02-01T02:38:36.598Z,97796.94
2023-02-01T02:42:21.397Z,97818.44
2023-02-01T02:46:21.384Z,97806.81
2023-02-01T02:49:44.831Z,97809.34
2023-02-01T02:53:13.774Z,97802.38
2023-02-01T02:56:36.163Z,97809.00
2023-02-01T03:00:00.305Z,97826.75
2023-02-01T03:03:25.589Z,97818.47
2023-02-01T03:06:34.356Z,97816.72
2023-02-01T03:09:42.809Z,97814.00
2023-02-01T03:12:58.986Z,97817.97
2023-02-01T03:16:02.502Z,97819.63
2023-02-01T03:19:14.852Z,97817.75
2023-02-01T03:22:33.039Z,97821.28
2023-02-01T03:25:37.660Z,97825.22
2023-02-01T03:28:46.551Z,97822.22
2023-02-01T03:31:50.045Z,97822.41
2023-02-01T03:34:56.067Z,97818.78
2023-02-01T03:38:20.360Z,97813.25
2023-02-01T03:41:35.789Z,97814.59
2023-02-01T03:44:47.413Z,97819.28
2023-02-01T03:47:52.454Z,97821.16
2023-02-01T03:50:59.170Z,97827.69
2023-02-01T03:54:04.318Z,97823.31
2023-02-01T03:57:13.830Z,97821.78
2023-02-01T04:00:26.417Z,97830.81
2023-02-01T04:03:34.170Z,97837.44
2023-02-01T04:06:38.785Z,97822.94
2023-02-01T04:09:43.835Z,97819.63
2023-02-01T04:12:49.856Z,97836.84
2023-02-01T04:15:53.342Z,97832.28
2023-02-01T04:18:56.768Z,97833.53
2023-02-01T04:22:01.075Z,97837.06
2023-02-01T04:25:07.226Z,97839.34
2023-02-01T04:28:11.636Z,97825.44
2023-02-01T04:31:26.833Z,97841.94
2023-02-01T04:34:32.760Z,97835.19
2023-02-01T04:37:38.638Z,97838.09
2023-02-01T04:40:41.917Z,97833.34
2023-02-01T04:43:49.530Z,97838.09
2023-02-01T04:46:55.824Z,97830.84
2023-02-01T04:49:58.688Z,97827.41
2023-02-01T04:53:05.069Z,97840.28
2023-02-01T04:56:10.860Z,97829.31
2023-02-01T04:59:14.372Z,97850.13
2023-02-01T05:02:19.032Z,97849.91
2023-02-01T05:05:22.459Z,97842.88
2023-02-01T05:08:30.528Z,97846.63
2023-02-01T05:11:52.330Z,97850.84
2023-02-01T05:14:56.563Z,97861.22
2023-02-01T05:17:59.795Z,97850.13
2023-02-01T05:21:04.352Z,97857.47
2023-02-01T05:24:21.711Z,97863.41
2023-02-01T05:27:25.138Z,97862.56
2023-02-01T05:30:28.686Z,97871.69
2023-02-01T05:33:31.354Z,97879.06
2023-02-01T05:36:34.468Z,97872.00
2023-02-01T05:39:38.554Z,97870.44
2023-02-01T05:42:41.401Z,97872.94
2023-02-01T05:45:45.673Z,97867.13
2023-02-01T05:48:48.432Z,97860.38
2023-02-01T05:51:52.655Z,97851.19
2023-02-01T05:54:56.066Z,97850.13
2023-02-01T05:58:01.451Z,97853.84
2023-02-01T06:01:05.272Z,97848.88
2023-02-01T06:04:09.507Z,97850.31
2023-02-01T06:07:12.639Z,97852.50
2023-02-01T06:10:16.376Z,97867.13
2023-02-01T06:13:21.453Z,97853.25
2023-02-01T06:16:24.983Z,97851.59
2023-02-01T06:19:28.621Z,97850.53
2023-02-01T06:22:33.338Z,97850.44
2023-02-01T06:25:36.173Z,97856.88
2023-02-01T06:28:40.867Z,97864.63
2023-02-01T06:31:44.050Z,97860.91
2023-02-01T06:34:49.661Z,97853.25
2023-02-01T06:37:52.694Z,97867.22
2023-02-01T06:40:57.620Z,97860.06
2023-02-01T06:44:00.632Z,97865.38
2023-02-01T06:47:06.764Z,97859.72
2023-02-01T06:50:12.799Z,97870.00
2023-02-01T06:53:15.607Z,97866.91
2023-02-01T06:56:23.520Z,97864.41
2023-02-01T06:59:26.532Z,97863.47
2023-02-01T07:02:30.529Z,97864.81
2023-02-01T07:05:33.479Z,97847.88
2023-02-01T07:08:38.032Z,97843.34
2023-02-01T07:11:45.532Z,97829.97
2023-02-01T07:14:48.232Z,97828.53
2023-02-01T07:17:51.401Z,97842.53
2023-02-01T07:20:55.045Z,97842.16
2023-02-01T07:23:59.541Z,97853.00
2023-02-01T07:27:02.592Z,97862.72
2023-02-01T07:30:07.866Z,97859.41
2023-02-01T07:33:10.483Z,97872.47
2023-02-01T07:36:17.647Z,97870.16
2023-02-01T07:39:20.224Z,97875.00
2023-02-01T07:42:24.111Z,97867.03
2023-02-01T07:45:26.963Z,97863.72
2023-02-01T07:48:30.558Z,97860.31
2023-02-01T07:51:33.509Z,97860.81
2023-02-01T07:54:39.689Z,97872.97
2023-02-01T07:57:42.887Z,97872.16
2023-02-01T08:01:07.414Z,97865.50
2023-02-01T08:04:12.978Z,97858.72
2023-02-01T08:07:17.035Z,97866.00
2023-02-01T08:10:20.338Z,97862.44
2023-02-01T08:13:24.328Z,97867.03
2023-02-01T08:16:27.611Z,97875.34
2023-02-01T08:19:32.079Z,97867.91
2023-02-01T08:22:34.929Z,97864.47
2023-02-01T08:25:38.284Z,97868.31
2023-02-01T08:28:42.759Z,97859.59
2023-02-01T08:31:47.090Z,97863.03
2023-02-01T08:34:49.655Z,97861.84
2023-02-01T08:37:53.705Z,97845.97
2023-02-01T08:40:56.968Z,97842.09
2023-02-01T08:44:00.895Z,97839.59
2023-02-01T08:47:04.801Z,97829.78
2023-02-01T08:50:11.109Z,97836.81
2023-02-01T08:53:15.224Z,97827.41
2023-02-01T08:56:20.761Z,97840.38
2023-02-01T08:59:24.774Z,97837.25
2023-02-01T09:02:29.222Z,97829.00
2023-02-01T09:05:48.493Z,97820.22
2023-02-01T09:08:53.695Z,97830.25
2023-02-01T09:11:56.436Z,97821.03
2023-02-01T09:15:00.771Z,97811.84
2023-02-01T09:18:04.568Z,97810.41
2023-02-01T09:21:10.857Z,97793.59
2023-02-01T09:24:14.741Z,97792.69
2023-02-01T09:27:18.717Z,97782.66
2023-02-01T09:30:23.041Z,97786.75
2023-02-01T09:33:27.584Z,97795.97
2023-02-01T09:36:31.412Z,97790.50
2023-02-01T09:39:34.420Z,97783.34
2023-02-01T09:43:07.900Z,97783.09
2023-02-01T09:46:28.210Z,97788.19
2023-02-01T09:49:34.523Z,97789.13
2023-02-01T09:53:03.281Z,97786.41
2023-02-01T09:56:08.707Z,97792.31
2023-02-01T09:59:52.782Z,97779.94
2023-02-01T10:02:57.133Z,97778.97
2023-02-01T10:06:21.915Z,97776.16
2023-02-01T10:09:50.725Z,97782.28
2023-02-01T10:13:27.553Z,97781.31
2023-02-01T10:16:36.544Z,97777.75
2023-02-01T10:20:03.717Z,97763.72
2023-02-01T10:23:23.207Z,97767.38
2023-02-01T10:26:47.160Z,97777.50
2023-02-01T10:29:57.822Z,97773.00
2023-02-01T10:33:34.643Z,97772.03
2023-02-01T10:36:42.897Z,97768.25
2023-02-01T10:39:49.006Z,97775.88
2023-02-01T10:42:55.855Z,97773.78
2023-02-01T10:45:59.322Z,97776.19
2023-02-01T10:49:05.963Z,97783.00
2023-02-01T10:52:14.925Z,97785.66
2023-02-01T10:55:29.455Z,97788.16
2023-02-01T10:58:34.076Z,97783.69
2023-02-01T11:01:42.845Z,97778.56
2023-02-01T11:04:46.593Z,97774.38
2023-02-01T11:07:51.041Z,97770.09
2023-02-01T11:11:07.862Z,97751.63
2023-02-01T11:14:22.649Z,97750.63
2023-02-01T11:17:30.384Z,97752.13
2023-02-01T11:20:33.334Z,97735.31
2023-02-01T11:23:46.151Z,97731.91
2023-02-01T11:26:48.981Z,97736.16
2023-02-01T11:29:54.831Z,97737.94
2023-02-01T11:32:57.569Z,97741.94
2023-02-01T11:36:15.937Z,97732.94
2023-02-01T11:39:27.447Z,97719.34
2023-02-01T11:42:31.144Z,97724.97
2023-02-01T11:45:39.122Z,97726.94
2023-02-01T11:48:41.992Z,97737.47
2023-02-01T11:51:56.023Z,97735.16
2023-02-01T11:55:13.896Z,97718.31
2023-02-01T11:58:41.088Z,97719.28
2023-02-01T12:01:58.736Z,97709.88
2023-02-01T12:05:27.358Z,97694.94
2023-02-01T12:09:00.116Z,97694.63
2023-02-01T12:12:25.859Z,97687.78
2023-02-01T12:15:58.761Z,97678.72
2023-02-01T12:19:30.613Z,97669.38
2023-02-01T12:22:40.194Z,97673.09
2023-02-01T12:25:56.971Z,97679.50
2023-02-01T12:29:06.575Z,97670.59
2023-02-01T12:32:35.089Z,97667.78
2023-02-01T12:35:54.953Z,97677.19
2023-02-01T12:39:11.730Z,97674.69
2023-02-01T12:42:39.832Z,97668.25
2023-02-01T12:45:46.486Z,97669.91
2023-02-01T12:49:37.315Z,97669.09
2023-02-01T12:52:45.369Z,97660.00
2023-02-01T12:55:56.034Z,97678.75
2023-02-01T12:59:12.097Z,97675.09
2023-02-01T13:02:27.202Z,97654.81
2023-02-01T13:05:53.370Z,97667.81
2023-02-01T13:09:11.615Z,97663.41
2023-02-01T13:12:20.514Z,97654.13
2023-02-01T13:15:34.925Z,97663.59
2023-02-01T13:18:44.260Z,97654.75
2023-02-01T13:21:51.358Z,97668.25
2023-02-01T13:25:06.020Z,97661.44
2023-02-01T13:28:19.391Z,97644.88
2023-02-01T13:32:00.297Z,97650.34
2023-02-01T13:35:31.214Z,97642.34
2023-02-01T13:38:38.036Z,97650.63
2023-02-01T13:41:51.706Z,97650.28
2023-02-01T13:45:07.462Z,97647.84
2023-02-01T13:48:21.250Z,97647.34
2023-02-01T13:51:47.254Z,97640.81
2023-02-01T13:54:50.281Z,97646.44
2023-02-01T13:58:03.890Z,97649.84
2023-02-01T14:01:25.199Z,97642.53
2023-02-01T14:04:57.867Z,97648.34
2023-02-01T14:08:16.298Z,97649.63
2023-02-01T14:11:37.105Z,97642.66
2023-02-01T14:14:44.266Z,97636.59
2023-02-01T14:17:47.325Z,97651.78
2023-02-01T14:20:54.401Z,97640.56
2023-02-01T14:24:31.675Z,97646.00
2023-02-01T14:27:37.969Z,97627.72
2023-02-01T14:30:44.039Z,97631.69
2023-02-01T14:33:47.857Z,97630.44
2023-02-01T14:36:56.563Z,97638.91
2023-02-01T14:40:06.692Z,97633.72
2023-02-01T14:43:09.699Z,97628.91
2023-02-01T14:47:04.671Z,97637.63
2023-02-01T14:50:15.126Z,97643.44
2023-02-01T14:53:24.538Z,97644.38
2023-02-01T14:56:28.115Z,97639.44
2023-02-01T14:59:34.635Z,97641.22
2023-02-01T15:02:40.656Z,97653.34
2023-02-01T15:05:43.491Z,97647.94
2023-02-01T15:08:47.961Z,97661.13
2023-02-01T15:12:01.992Z,97660.78
2023-02-01T15:15:13.878Z,97659.53
2023-02-01T15:18:20.157Z,97655.38
2023-02-01T15:21:29.906Z,97652.69
2023-02-01T15:24:35.753Z,97659.53
2023-02-01T15:27:38.803Z,97665.66
2023-02-01T15:30:56.289Z,97667.06
2023-02-01T15:34:01.912Z,97670.78
2023-02-01T15:37:07.173Z,97669.41
2023-02-01T15:40:13.439Z,97686.50
2023-02-01T15:43:19.083Z,97693.38
2023-02-01T15:46:35.104Z,97699.25
2023-02-01T15:49:42.390Z,97702.88
2023-02-01T15:52:49.431Z,97705.16
2023-02-01T15:55:58.835Z,97712.59
2023-02-01T15:59:07.674Z,97716.72
2023-02-01T16:02:30.754Z,97717.31
2023-02-01T16:05:40.546Z,97724.66
2023-02-01T16:09:14.025Z,97713.44
2023-02-01T16:12:39.787Z,97721.34
2023-02-01T16:15:44.262Z,97721.34
2023-02-01T16:18:47.631Z,97734.53
2023-02-01T16:21:51.529Z,97732.91
2023-02-01T16:24:54.926Z,97723.81
2023-02-01T16:28:04.643Z,97713.81
2023-02-01T16:31:30.665Z,97713.94
2023-02-01T16:34:38.447Z,97715.47
2023-02-01T16:37:43.047Z,97710.06
2023-02-01T16:40:49.187Z,97710.88
2023-02-01T16:43:55.063Z,97710.75
2023-02-01T16:46:58.192Z,97717.78
2023-02-01T16:50:17.618Z,97714.75
2023-02-01T16:53:29.009Z,97715.94
2023-02-01T16:56:37.282Z,97712.88
2023-02-01T16:59:44.138Z,97710.75
2023-02-01T17:02:50.107Z,97713.34
2023-02-01T17:06:09.725Z,97713.34
2023-02-01T17:09:18.597Z,97710.75
2023-02-01T17:12:44.619Z,97715.47
2023-02-01T17:16:20.223Z,97718.53
2023-02-01T17:19:28.916Z,97699.03
2023-02-01T17:22:37.534Z,97718.53
2023-02-01T17:25:40.949Z,97712.53
2023-02-01T17:28:46.821Z,97717.84
2023-02-01T17:31:55.464Z,97723.34
2023-02-01T17:35:05.590Z,97726.09
2023-02-01T17:38:17.738Z,97721.72
2023-02-01T17:41:37.542Z,97720.66
2023-02-01T17:44:45.074Z,97721.38
2023-02-01T17:47:53.998Z,97712.59
2023-02-01T17:51:04.877Z,97711.78
2023-02-01T17:54:17.034Z,97720.66
2023-02-01T17:57:42.249Z,97707.78
2023-02-01T18:00:50.644Z,97718.41
2023-02-01T18:03:57.503Z,97703.91
2023-02-01T18:07:01.123Z,97714.97
2023-02-01T18:10:06.640Z,97709.56
2023-02-01T18:13:15.207Z,97699.69
2023-02-01T18:16:47.914Z,97703.34
2023-02-01T18:19:53.348Z,97697.94
2023-02-01T18:22:57.349Z,97706.69
2023-02-01T18:26:07.760Z,97696.28
2023-02-01T18:29:13.392Z,97702.22
2023-02-01T18:35:33.615Z,97704.91
2023-02-01T18:38:37.682Z,97688.50
2023-02-01T18:41:41.586Z,97698.06
2023-02-01T18:44:45.453Z,97696.75
2023-02-01T18:47:48.694Z,97698.88
2023-02-01T18:50:57.390Z,97688.63
2023-02-01T18:54:05.425Z,97700.91
2023-02-01T18:57:11.881Z,97693.56
2023-02-01T19:00:22.694Z,97682.97
2023-02-01T19:03:29.651Z,97692.16
2023-02-01T19:06:32.927Z,97690.06
2023-02-01T19:09:39.745Z,97693.34
2023-02-01T19:12:45.225Z,97684.03
2023-02-01T19:15:48.295Z,97695.13
2023-02-01T19:18:55.477Z,97679.22
2023-02-01T19:21:58.387Z,97681.31
2023-02-01T19:25:02.097Z,97678.84
2023-02-01T19:28:05.303Z,97671.63
2023-02-01T19:31:10.475Z,97667.47
2023-02-01T19:34:13.906Z,97663.59
2023-02-01T19:37:20.205Z,97667.72
2023-02-01T19:40:26.309Z,97658.41
2023-02-01T19:43:29.277Z,97654.38
2023-02-01T19:46:36.004Z,97657.94
2023-02-01T19:49:39.158Z,97663.09
2023-02-01T19:52:42.571Z,97655.66
2023-02-01T19:55:51.413Z,97653.06
2023-02-01T19:58:55.805Z,97661.16
2023-02-01T20:01:59.381Z,97659.97
2023-02-01T20:05:03.228Z,97646.97
2023-02-01T20:08:06.577Z,97654.63
2023-02-01T20:11:10.182Z,97649.69
2023-02-01T20:14:15.055Z,97643.09
2023-02-01T20:17:18.572Z,97639.81
2023-02-01T20:20:23.447Z,97636.13
2023-02-01T20:23:30.289Z,97638.56
2023-02-01T20:26:35.648Z,97626.19
2023-02-01T20:29:41.733Z,97611.78
2023-02-01T20:32:44.910Z,97609.22
2023-02-01T20:35:49.803Z,97622.47
2023-02-01T20:38:54.836Z,97599.59
2023-02-01T20:41:58.280Z,97594.91
2023-02-01T20:45:05.737Z,97600.91
2023-02-01T20:48:12.150Z,97598.47
2023-02-01T20:51:17.034Z,97598.94
2023-02-01T20:54:24.428Z,97582.69
2023-02-01T20:57:28.674Z,97575.59
2023-02-01T21:00:32.328Z,97565.25
2023-02-01T21:03:37.853Z,97557.03
2023-02-01T21:06:41.162Z,97541.97
2023-02-01T21:09:46.648Z,97548.56
2023-02-01T21:13:01.051Z,97546.50
2023-02-01T21:16:14.906Z,97543.41
2023-02-01T21:19:18.268Z,97555.41
2023-02-01T21:22:22.873Z,97543.84
2023-02-01T21:25:26.060Z,97529.50
2023-02-01T21:28:30.283Z,97540.56
2023-02-01T21:31:33.126Z,97536.00
2023-02-01T21:34:38.089Z,97513.00
2023-02-01T21:37:41.098Z,97520.31
2023-02-01T21:40:46.118Z,97499.81
2023-02-01T21:43:49.047Z,97514.44
2023-02-01T21:46:56.001Z,97515.63
2023-02-01T21:49:58.841Z,97526.56
2023-02-01T21:53:04.321Z,97550.38
2023-02-01T21:56:08.975Z,97547.69
2023-02-01T21:59:12.673Z,97526.94
2023-02-01T22:02:18.811Z,97535.63
2023-02-01T22:05:21.537Z,97527.84
2023-02-01T22:08:25.424Z,97524.06
2023-02-01T22:11:28.902Z,97542.00
2023-02-01T22:14:33.418Z,97529.84
2023-02-01T22:17:37.149Z,97524.59
2023-02-01T22:20:41.402Z,97532.59
2023-02-01T22:23:44.416Z,97536.44
2023-02-01T22:26:49.078Z,97527.72
2023-02-01T22:29:51.847Z,97543.84
2023-02-01T22:32:55.474Z,97539.84
2023-02-01T22:35:58.173Z,97525.97
2023-02-01T22:39:00.913Z,97542.88
2023-02-01T22:42:03.863Z,97547.22
2023-02-01T22:45:07.475Z,97543.53
2023-02-01T22:48:11.205Z,97579.81
2023-02-01T22:51:18.724Z,97576.53
2023-02-01T22:54:21.785Z,97575.66
2023-02-01T22:57:27.686Z,97574.84
2023-02-01T23:00:30.422Z,97568.63
2023-02-01T23:03:34.421Z,97570.09
2023-02-01T23:06:39.902Z,97570.47
2023-02-01T23:09:42.925Z,97565.09
2023-02-01T23:12:46.739Z,97561.56
2023-02-01T23:15:51.291Z,97562.19
2023-02-01T23:18:54.310Z,97548.28
2023-02-01T23:21:56.827Z,97549.31
2023-02-01T23:24:59.587Z,97559.06
2023-02-01T23:28:02.224Z,97553.06
2023-02-01T23:31:10.065Z,97533.66
2023-02-01T23:34:13.673Z,97547.28
2023-02-01T23:37:16.570Z,97528.44
2023-02-01T23:40:20.564Z,97523.91
2023-02-01T23:43:41.560Z,97520.19
2023-02-01T23:46:50.256Z,97515.88
2023-02-01T23:49:53.102Z,97510.69
2023-02-01T23:52:57.617Z,97524.38
2023-02-01T23:56:00.424Z,97522.03
2023-02-01T23:59:06.523Z,97537.81
